sensor_id;sensor_type;location;lat;lon;timestamp;pressure;altitude;pressure_sealevel;temperature;humidity
78894;BME280;68282;42.698;23.350;2023-05-16T00:00:35;95159.44;;;16.19;66.75
78894;BME280;68282;42.698;23.350;2023-05-16T00:03:01;95156.13;;;16.17;66.79
78894;BME280;68282;42.698;23.350;2023-05-16T00:05:29;95149.53;;;16.13;67.05
78894;BME280;68282;42.698;23.350;2023-05-16T00:07:55;95154.47;;;16.11;66.87
78894;BME280;68282;42.698;23.350;2023-05-16T00:10:20;95150.09;;;16.15;66.81
78894;BME280;68282;42.698;23.350;2023-05-16T00:12:46;95139.41;;;16.14;66.82
78894;BME280;68282;42.698;23.350;2023-05-16T00:15:16;95145.72;;;16.09;67.09
78894;BME280;68282;42.698;23.350;2023-05-16T00:17:42;95143.25;;;16.13;68.57
78894;BME280;68282;42.698;23.350;2023-05-16T00:20:11;95131.44;;;16.17;66.89
78894;BME280;68282;42.698;23.350;2023-05-16T00:22:39;95126.75;;;16.18;66.95
78894;BME280;68282;42.698;23.350;2023-05-16T00:25:05;95127.34;;;16.15;66.60
78894;BME280;68282;42.698;23.350;2023-05-16T00:27:33;95132.53;;;16.11;66.73
78894;BME280;68282;42.698;23.350;2023-05-16T00:29:59;95136.13;;;16.12;66.65
78894;BME280;68282;42.698;23.350;2023-05-16T00:32:25;95129.00;;;16.11;66.97
78894;BME280;68282;42.698;23.350;2023-05-16T00:34:50;95135.84;;;16.08;66.80
78894;BME280;68282;42.698;23.350;2023-05-16T00:37:16;95136.38;;;16.10;66.92
78894;BME280;68282;42.698;23.350;2023-05-16T00:39:41;95133.63;;;16.10;66.90
78894;BME280;68282;42.698;23.350;2023-05-16T00:42:07;95133.13;;;16.03;67.04
78894;BME280;68282;42.698;23.350;2023-05-16T00:44:32;95122.97;;;16.03;67.19
78894;BME280;68282;42.698;23.350;2023-05-16T00:46:58;95107.63;;;16.02;67.27
78894;BME280;68282;42.698;23.350;2023-05-16T00:49:24;95110.63;;;16.01;67.45
78894;BME280;68282;42.698;23.350;2023-05-16T00:51:50;95103.50;;;16.00;67.43
78894;BME280;68282;42.698;23.350;2023-05-16T00:54:16;95095.53;;;15.98;67.51
78894;BME280;68282;42.698;23.350;2023-05-16T00:56:42;95087.59;;;15.97;67.33
78894;BME280;68282;42.698;23.350;2023-05-16T00:59:07;95094.16;;;16.01;67.53
78894;BME280;68282;42.698;23.350;2023-05-16T01:01:33;95082.63;;;15.99;67.37
78894;BME280;68282;42.698;23.350;2023-05-16T01:04:00;95088.41;;;15.97;67.41
78894;BME280;68282;42.698;23.350;2023-05-16T01:06:26;95093.34;;;16.00;67.48
78894;BME280;68282;42.698;23.350;2023-05-16T01:08:52;95093.09;;;15.97;67.36
78894;BME280;68282;42.698;23.350;2023-05-16T01:17:14;95100.75;;;16.00;67.19
78894;BME280;68282;42.698;23.350;2023-05-16T01:20:16;95087.06;;;15.95;67.54
78894;BME280;68282;42.698;23.350;2023-05-16T01:27:58;95085.41;;;15.94;67.31
78894;BME280;68282;42.698;23.350;2023-05-16T01:30:23;95084.88;;;15.91;67.47
78894;BME280;68282;42.698;23.350;2023-05-16T01:32:49;95077.19;;;15.94;67.40
78894;BME280;68282;42.698;23.350;2023-05-16T01:35:16;95076.38;;;15.88;68.02
78894;BME280;68282;42.698;23.350;2023-05-16T01:37:49;95062.66;;;15.88;67.78
78894;BME280;68282;42.698;23.350;2023-05-16T01:40:48;95066.75;;;15.90;67.84
78894;BME280;68282;42.698;23.350;2023-05-16T01:43:41;95050.06;;;15.87;67.62
78894;BME280;68282;42.698;23.350;2023-05-16T01:46:13;95044.56;;;15.87;67.77
78894;BME280;68282;42.698;23.350;2023-05-16T01:48:52;95054.44;;;15.88;67.83
78894;BME280;68282;42.698;23.350;2023-05-16T01:51:21;95048.91;;;15.83;67.99
78894;BME280;68282;42.698;23.350;2023-05-16T01:53:48;95048.66;;;15.79;67.72
78894;BME280;68282;42.698;23.350;2023-05-16T01:56:15;95045.66;;;15.81;67.66
78894;BME280;68282;42.698;23.350;2023-05-16T01:58:41;95048.94;;;15.77;67.77
78894;BME280;68282;42.698;23.350;2023-05-16T02:01:08;95046.22;;;15.77;67.89
78894;BME280;68282;42.698;23.350;2023-05-16T02:03:34;95048.94;;;15.77;67.70
78894;BME280;68282;42.698;23.350;2023-05-16T02:06:00;95036.06;;;15.78;67.79
78894;BME280;68282;42.698;23.350;2023-05-16T02:08:26;95033.84;;;15.80;67.37
78894;BME280;68282;42.698;23.350;2023-05-16T02:10:52;95036.88;;;15.79;67.55
78894;BME280;68282;42.698;23.350;2023-05-16T02:13:18;95040.44;;;15.79;67.42
78894;BME280;68282;42.698;23.350;2023-05-16T02:15:43;95046.50;;;15.76;67.30
78894;BME280;68282;42.698;23.350;2023-05-16T02:18:09;95035.78;;;15.80;67.45
78894;BME280;68282;42.698;23.350;2023-05-16T02:20:35;95028.13;;;15.76;67.09
78894;BME280;68282;42.698;23.350;2023-05-16T02:23:00;95029.22;;;15.81;67.22
78894;BME280;68282;42.698;23.350;2023-05-16T02:25:27;95033.31;;;15.83;66.77
78894;BME280;68282;42.698;23.350;2023-05-16T02:27:53;95039.34;;;15.80;67.00
78894;BME280;68282;42.698;23.350;2023-05-16T02:30:18;95031.13;;;15.80;67.19
78894;BME280;68282;42.698;23.350;2023-05-16T02:32:43;95026.72;;;15.79;67.07
78894;BME280;68282;42.698;23.350;2023-05-16T02:35:09;95027.28;;;15.81;66.87
78894;BME280;68282;42.698;23.350;2023-05-16T02:37:35;95031.94;;;15.81;66.78
78894;BME280;68282;42.698;23.350;2023-05-16T02:40:00;95032.75;;;15.81;67.10
78894;BME280;68282;42.698;23.350;2023-05-16T02:42:25;95051.97;;;15.81;66.87
78894;BME280;68282;42.698;23.350;2023-05-16T02:44:55;95044.56;;;15.82;67.04
78894;BME280;68282;42.698;23.350;2023-05-16T02:47:20;95042.09;;;15.80;67.03
78894;BME280;68282;42.698;23.350;2023-05-16T02:49:46;95042.09;;;15.80;67.07
78894;BME280;68282;42.698;23.350;2023-05-16T02:52:11;95033.84;;;15.80;67.23
78894;BME280;68282;42.698;23.350;2023-05-16T02:54:37;95026.47;;;15.81;67.18
78894;BME280;68282;42.698;23.350;2023-05-16T02:57:03;95030.84;;;15.82;67.00
78894;BME280;68282;42.698;23.350;2023-05-16T02:59:28;95024.81;;;15.80;67.00
78894;BME280;68282;42.698;23.350;2023-05-16T03:01:54;95021.78;;;15.81;67.33
78894;BME280;68282;42.698;23.350;2023-05-16T03:04:19;95023.44;;;15.82;67.01
78894;BME280;68282;42.698;23.350;2023-05-16T03:06:45;95024.25;;;15.83;67.07
78894;BME280;68282;42.698;23.350;2023-05-16T03:09:10;95028.91;;;15.82;66.99
78894;BME280;68282;42.698;23.350;2023-05-16T03:11:36;95023.44;;;15.82;66.82
78894;BME280;68282;42.698;23.350;2023-05-16T03:14:02;95024.53;;;15.81;67.11
78894;BME280;68282;42.698;23.350;2023-05-16T03:16:27;95028.91;;;15.82;67.04
78894;BME280;68282;42.698;23.350;2023-05-16T03:18:53;95031.38;;;15.84;66.97
78894;BME280;68282;42.698;23.350;2023-05-16T03:21:18;95026.97;;;15.83;67.08
78894;BME280;68282;42.698;23.350;2023-05-16T03:23:44;95022.09;;;15.80;67.14
78894;BME280;68282;42.698;23.350;2023-05-16T03:26:09;95018.50;;;15.79;67.29
78894;BME280;68282;42.698;23.350;2023-05-16T03:28:36;95021.25;;;15.79;67.28
78894;BME280;68282;42.698;23.350;2023-05-16T03:31:01;95014.13;;;15.78;67.41
78894;BME280;68282;42.698;23.350;2023-05-16T03:33:26;95021.53;;;15.77;67.55
78894;BME280;68282;42.698;23.350;2023-05-16T03:35:52;95024.56;;;15.76;67.43
78894;BME280;68282;42.698;23.350;2023-05-16T03:38:17;95018.53;;;15.74;67.38
78894;BME280;68282;42.698;23.350;2023-05-16T03:40:43;95022.34;;;15.78;67.32
78894;BME280;68282;42.698;23.350;2023-05-16T03:43:08;95010.00;;;15.81;67.29
78894;BME280;68282;42.698;23.350;2023-05-16T03:45:34;95014.69;;;15.85;67.14
78894;BME280;68282;42.698;23.350;2023-05-16T03:47:59;95013.56;;;15.81;67.24
78894;BME280;68282;42.698;23.350;2023-05-16T03:50:25;95031.94;;;15.86;67.19
78894;BME280;68282;42.698;23.350;2023-05-16T03:52:50;95025.38;;;15.87;67.19
78894;BME280;68282;42.698;23.350;2023-05-16T03:55:18;95021.25;;;15.89;67.25
78894;BME280;68282;42.698;23.350;2023-05-16T03:57:43;95020.72;;;15.87;67.24
78894;BME280;68282;42.698;23.350;2023-05-16T04:00:09;95032.22;;;15.89;67.21
78894;BME280;68282;42.698;23.350;2023-05-16T04:02:37;95020.44;;;15.89;67.20
78894;BME280;68282;42.698;23.350;2023-05-16T04:05:05;95018.78;;;15.88;67.18
78894;BME280;68282;42.698;23.350;2023-05-16T04:07:31;95020.44;;;15.89;66.99
78894;BME280;68282;42.698;23.350;2023-05-16T04:09:57;95020.69;;;15.92;66.83
78894;BME280;68282;42.698;23.350;2023-05-16T04:12:22;95020.41;;;15.94;66.76
78894;BME280;68282;42.698;23.350;2023-05-16T04:14:48;95024.53;;;15.97;66.93
78894;BME280;68282;42.698;23.350;2023-05-16T04:17:13;95024.78;;;15.95;66.48
78894;BME280;68282;42.698;23.350;2023-05-16T04:19:39;95031.66;;;15.98;66.48
78894;BME280;68282;42.698;23.350;2023-05-16T04:22:05;95030.00;;;15.97;66.41
78894;BME280;68282;42.698;23.350;2023-05-16T04:24:30;95037.13;;;15.98;66.17
78894;BME280;68282;42.698;23.350;2023-05-16T04:26:56;95025.03;;;15.99;65.89
78894;BME280;68282;42.698;23.350;2023-05-16T04:29:21;95031.91;;;16.01;66.31
78894;BME280;68282;42.698;23.350;2023-05-16T04:31:47;95018.75;;;15.98;66.53
78894;BME280;68282;42.698;23.350;2023-05-16T04:34:13;95022.84;;;16.01;66.44
78894;BME280;68282;42.698;23.350;2023-05-16T04:36:40;95022.28;;;16.04;66.71
78894;BME280;68282;42.698;23.350;2023-05-16T04:39:06;95011.06;;;16.00;66.49
78894;BME280;68282;42.698;23.350;2023-05-16T04:41:31;95017.91;;;16.03;66.69
78894;BME280;68282;42.698;23.350;2023-05-16T04:43:59;95011.31;;;16.04;66.48
78894;BME280;68282;42.698;23.350;2023-05-16T04:46:25;95009.38;;;16.10;66.09
78894;BME280;68282;42.698;23.350;2023-05-16T04:48:51;95014.84;;;16.10;66.42
78894;BME280;68282;42.698;23.350;2023-05-16T04:51:16;95012.66;;;16.12;66.55
78894;BME280;68282;42.698;23.350;2023-05-16T04:53:42;95024.19;;;16.14;66.53
78894;BME280;68282;42.698;23.350;2023-05-16T04:56:07;95021.16;;;16.15;66.38
78894;BME280;68282;42.698;23.350;2023-05-16T04:58:32;95020.59;;;16.13;66.47
78894;BME280;68282;42.698;23.350;2023-05-16T05:00:58;95015.94;;;16.14;66.52
78894;BME280;68282;42.698;23.350;2023-05-16T05:03:23;95015.13;;;16.13;66.62
78894;BME280;68282;42.698;23.350;2023-05-16T05:05:49;95012.91;;;16.15;66.28
78894;BME280;68282;42.698;23.350;2023-05-16T05:08:14;95018.94;;;16.17;66.29
78894;BME280;68282;42.698;23.350;2023-05-16T05:10:40;95010.16;;;16.20;66.33
78894;BME280;68282;42.698;23.350;2023-05-16T05:13:06;95012.31;;;16.23;65.45
78894;BME280;68282;42.698;23.350;2023-05-16T05:15:31;95019.50;;;16.19;65.75
78894;BME280;68282;42.698;23.350;2023-05-16T05:17:57;95038.16;;;16.17;65.88
78894;BME280;68282;42.698;23.350;2023-05-16T05:20:22;95028.81;;;16.13;66.06
78894;BME280;68282;42.698;23.350;2023-05-16T05:22:48;95018.41;;;16.15;66.08
78894;BME280;68282;42.698;23.350;2023-05-16T05:25:13;95020.59;;;16.18;65.95
78894;BME280;68282;42.698;23.350;2023-05-16T05:27:39;95022.22;;;16.19;66.33
78894;BME280;68282;42.698;23.350;2023-05-16T05:30:05;95026.03;;;16.23;66.17
78894;BME280;68282;42.698;23.350;2023-05-16T05:32:31;95023.84;;;16.26;66.28
78894;BME280;68282;42.698;23.350;2023-05-16T05:34:56;95007.38;;;16.26;65.89
78894;BME280;68282;42.698;23.350;2023-05-16T05:37:21;94999.69;;;16.28;66.44
78894;BME280;68282;42.698;23.350;2023-05-16T05:39:47;94998.59;;;16.23;66.75
78894;BME280;68282;42.698;23.350;2023-05-16T05:42:12;94998.84;;;16.27;66.75
78894;BME280;68282;42.698;23.350;2023-05-16T05:44:37;94991.44;;;16.28;66.76
78894;BME280;68282;42.698;23.350;2023-05-16T05:47:04;94987.06;;;16.27;66.80
78894;BME280;68282;42.698;23.350;2023-05-16T05:49:30;94996.41;;;16.26;66.90
78894;BME280;68282;42.698;23.350;2023-05-16T05:51:56;94992.81;;;16.30;66.76
78894;BME280;68282;42.698;23.350;2023-05-16T05:54:22;94986.22;;;16.26;66.42
78894;BME280;68282;42.698;23.350;2023-05-16T05:56:47;94984.06;;;16.23;66.60
78894;BME280;68282;42.698;23.350;2023-05-16T05:59:13;94984.63;;;16.25;66.61
78894;BME280;68282;42.698;23.350;2023-05-16T06:01:38;94983.22;;;16.28;66.47
78894;BME280;68282;42.698;23.350;2023-05-16T06:04:04;94993.09;;;16.29;66.44
78894;BME280;68282;42.698;23.350;2023-05-16T06:06:30;94985.41;;;16.31;66.16
78894;BME280;68282;42.698;23.350;2023-05-16T06:08:56;94983.16;;;16.33;66.52
78894;BME280;68282;42.698;23.350;2023-05-16T06:11:24;94987.28;;;16.35;66.11
78894;BME280;68282;42.698;23.350;2023-05-16T06:13:50;94987.00;;;16.37;66.19
78894;BME280;68282;42.698;23.350;2023-05-16T06:16:16;94991.69;;;16.36;66.09
78894;BME280;68282;42.698;23.350;2023-05-16T06:18:41;94988.94;;;16.36;66.12
78894;BME280;68282;42.698;23.350;2023-05-16T06:21:07;94983.16;;;16.38;66.36
78894;BME280;68282;42.698;23.350;2023-05-16T06:23:33;94984.56;;;16.35;66.44
78894;BME280;68282;42.698;23.350;2023-05-16T06:26:00;94993.03;;;16.34;66.37
78894;BME280;68282;42.698;23.350;2023-05-16T06:28:25;95001.81;;;16.36;66.20
78894;BME280;68282;42.698;23.350;2023-05-16T06:30:51;94991.13;;;16.34;66.20
78894;BME280;68282;42.698;23.350;2023-05-16T06:33:19;94996.09;;;16.32;66.68
78894;BME280;68282;42.698;23.350;2023-05-16T06:35:45;94994.69;;;16.35;66.66
78894;BME280;68282;42.698;23.350;2023-05-16T06:38:12;94988.41;;;16.34;66.51
78894;BME280;68282;42.698;23.350;2023-05-16T06:40:37;94974.38;;;16.36;66.51
78894;BME280;68282;42.698;23.350;2023-05-16T06:43:02;94976.03;;;16.37;66.42
78894;BME280;68282;42.698;23.350;2023-05-16T06:45:28;94974.34;;;16.41;66.41
78894;BME280;68282;42.698;23.350;2023-05-16T06:47:54;94984.50;;;16.41;66.66
78894;BME280;68282;42.698;23.350;2023-05-16T06:50:21;94978.47;;;16.38;66.62
78894;BME280;68282;42.698;23.350;2023-05-16T06:52:46;94969.94;;;16.45;66.54
78894;BME280;68282;42.698;23.350;2023-05-16T06:55:12;94975.16;;;16.47;66.38
78894;BME280;68282;42.698;23.350;2023-05-16T06:57:37;94964.69;;;16.49;66.36
78894;BME280;68282;42.698;23.350;2023-05-16T07:00:03;94944.34;;;16.50;66.44
78894;BME280;68282;42.698;23.350;2023-05-16T07:02:29;94957.28;;;16.49;66.44
78894;BME280;68282;42.698;23.350;2023-05-16T07:04:54;94962.22;;;16.52;66.48
78894;BME280;68282;42.698;23.350;2023-05-16T07:07:20;94960.81;;;16.55;66.64
78894;BME280;68282;42.698;23.350;2023-05-16T07:09:45;94958.34;;;16.53;66.29
78894;BME280;68282;42.698;23.350;2023-05-16T07:12:10;94952.28;;;16.57;66.24
78894;BME280;68282;42.698;23.350;2023-05-16T07:14:36;94959.16;;;16.54;66.30
78894;BME280;68282;42.698;23.350;2023-05-16T07:17:01;94957.22;;;16.54;66.05
78894;BME280;68282;42.698;23.350;2023-05-16T07:19:27;94945.69;;;16.58;65.62
78894;BME280;68282;42.698;23.350;2023-05-16T07:21:52;94937.75;;;16.56;65.40
78894;BME280;68282;42.698;23.350;2023-05-16T07:24:18;94930.31;;;16.57;65.35
78894;BME280;68282;42.698;23.350;2023-05-16T07:26:43;94921.53;;;16.54;64.63
78894;BME280;68282;42.698;23.350;2023-05-16T07:29:09;94917.13;;;16.59;64.70
78894;BME280;68282;42.698;23.350;2023-05-16T07:31:34;94922.81;;;16.67;63.88
78894;BME280;68282;42.698;23.350;2023-05-16T07:34:00;94931.88;;;16.68;63.53
78894;BME280;68282;42.698;23.350;2023-05-16T07:36:25;94929.66;;;16.70;63.29
78894;BME280;68282;42.698;23.350;2023-05-16T07:38:51;94927.22;;;16.68;63.07
78894;BME280;68282;42.698;23.350;2023-05-16T07:41:16;94941.72;;;16.74;63.33
78894;BME280;68282;42.698;23.350;2023-05-16T07:43:41;94937.88;;;16.75;63.05
78894;BME280;68282;42.698;23.350;2023-05-16T07:46:07;94946.63;;;16.77;62.78
78894;BME280;68282;42.698;23.350;2023-05-16T07:48:32;94948.81;;;16.80;62.87
78894;BME280;68282;42.698;23.350;2023-05-16T07:50:58;94952.63;;;16.84;62.87
78894;BME280;68282;42.698;23.350;2023-05-16T07:53:23;94947.13;;;16.84;63.33
78894;BME280;68282;42.698;23.350;2023-05-16T07:55:49;94934.75;;;16.87;62.96
78894;BME280;68282;42.698;23.350;2023-05-16T07:58:14;94940.22;;;16.87;63.26
78894;BME280;68282;42.698;23.350;2023-05-16T08:00:40;94931.69;;;16.89;63.42
78894;BME280;68282;42.698;23.350;2023-05-16T08:03:05;94938.84;;;16.90;62.50
78894;BME280;68282;42.698;23.350;2023-05-16T08:05:31;94948.19;;;16.94;62.84
78894;BME280;68282;42.698;23.350;2023-05-16T08:07:58;94947.59;;;16.97;62.68
78894;BME280;68282;42.698;23.350;2023-05-16T08:10:23;94929.47;;;16.96;62.74
78894;BME280;68282;42.698;23.350;2023-05-16T08:12:49;94926.13;;;16.99;63.35
78894;BME280;68282;42.698;23.350;2023-05-16T08:15:14;94924.69;;;17.07;62.87
78894;BME280;68282;42.698;23.350;2023-05-16T08:17:40;94916.69;;;17.10;62.65
78894;BME280;68282;42.698;23.350;2023-05-16T08:20:06;94916.41;;;17.12;62.99
78894;BME280;68282;42.698;23.350;2023-05-16T08:22:32;94912.50;;;17.18;63.37
78894;BME280;68282;42.698;23.350;2023-05-16T08:24:57;94917.19;;;17.18;63.79
78894;BME280;68282;42.698;23.350;2023-05-16T08:27:25;94924.81;;;17.21;63.77
78894;BME280;68282;42.698;23.350;2023-05-16T08:29:50;94910.81;;;17.22;63.68
78894;BME280;68282;42.698;23.350;2023-05-16T08:32:15;94915.44;;;17.27;63.41
78894;BME280;68282;42.698;23.350;2023-05-16T08:34:41;94920.59;;;17.34;62.55
78894;BME280;68282;42.698;23.350;2023-05-16T08:37:06;94917.53;;;17.35;62.65
78894;BME280;68282;42.698;23.350;2023-05-16T08:39:32;94907.88;;;17.38;62.94
78894;BME280;68282;42.698;23.350;2023-05-16T08:41:58;94904.31;;;17.37;62.41
78894;BME280;68282;42.698;23.350;2023-05-16T08:44:24;94911.47;;;17.38;62.81
78894;BME280;68282;42.698;23.350;2023-05-16T08:46:51;94913.63;;;17.41;63.25
78894;BME280;68282;42.698;23.350;2023-05-16T08:49:18;94925.66;;;17.45;63.39
78894;BME280;68282;42.698;23.350;2023-05-16T08:51:45;94914.91;;;17.49;63.08
78894;BME280;68282;42.698;23.350;2023-05-16T08:54:13;94915.97;;;17.53;62.33
78894;BME280;68282;42.698;23.350;2023-05-16T08:56:40;94918.13;;;17.56;62.87
78894;BME280;68282;42.698;23.350;2023-05-16T08:59:06;94922.53;;;17.57;62.79
78894;BME280;68282;42.698;23.350;2023-05-16T09:01:32;94914.41;;;17.66;62.68
78894;BME280;68282;42.698;23.350;2023-05-16T09:03:59;94920.16;;;17.70;62.24
78894;BME280;68282;42.698;23.350;2023-05-16T09:06:28;94911.63;;;17.71;62.29
78894;BME280;68282;42.698;23.350;2023-05-16T09:08:54;94911.84;;;17.75;62.52
78894;BME280;68282;42.698;23.350;2023-05-16T09:11:19;94921.38;;;17.83;61.48
78894;BME280;68282;42.698;23.350;2023-05-16T09:13:46;94911.72;;;17.85;62.16
78894;BME280;68282;42.698;23.350;2023-05-16T09:16:17;94907.63;;;17.83;62.91
78894;BME280;68282;42.698;23.350;2023-05-16T09:18:45;94907.06;;;17.86;63.31
78894;BME280;68282;42.698;23.350;2023-05-16T09:21:12;94916.03;;;17.91;63.90
78894;BME280;68282;42.698;23.350;2023-05-16T09:23:38;94915.22;;;17.91;63.84
78894;BME280;68282;42.698;23.350;2023-05-16T09:26:06;94918.44;;;17.98;62.13
78894;BME280;68282;42.698;23.350;2023-05-16T09:28:36;94916.22;;;18.00;62.66
78894;BME280;68282;42.698;23.350;2023-05-16T09:31:02;94926.88;;;18.07;61.48
78894;BME280;68282;42.698;23.350;2023-05-16T09:33:28;94919.94;;;18.10;61.02
78894;BME280;68282;42.698;23.350;2023-05-16T09:35:58;94921.06;;;18.08;60.96
78894;BME280;68282;42.698;23.350;2023-05-16T09:38:25;94915.84;;;18.07;61.26
78894;BME280;68282;42.698;23.350;2023-05-16T09:40:52;94908.44;;;18.07;61.76
78894;BME280;68282;42.698;23.350;2023-05-16T09:43:25;94903.53;;;18.04;61.34
78894;BME280;68282;42.698;23.350;2023-05-16T09:45:51;94909.56;;;18.06;61.49
78894;BME280;68282;42.698;23.350;2023-05-16T09:48:17;94901.78;;;18.08;62.24
78894;BME280;68282;42.698;23.350;2023-05-16T09:50:52;94902.84;;;18.13;62.23
78894;BME280;68282;42.698;23.350;2023-05-16T09:53:29;94895.66;;;18.17;61.73
78894;BME280;68282;42.698;23.350;2023-05-16T09:55:59;94901.69;;;18.19;61.57
78894;BME280;68282;42.698;23.350;2023-05-16T09:58:29;94900.25;;;18.21;62.04
78894;BME280;68282;42.698;23.350;2023-05-16T10:00:56;94893.00;;;18.26;61.54
78894;BME280;68282;42.698;23.350;2023-05-16T10:03:24;94889.88;;;18.32;61.67
78894;BME280;68282;42.698;23.350;2023-05-16T10:05:50;94892.28;;;18.39;61.08
78894;BME280;68282;42.698;23.350;2023-05-16T10:08:21;94896.06;;;18.43;60.87
78894;BME280;68282;42.698;23.350;2023-05-16T10:10:50;94897.56;;;18.54;58.72
78894;BME280;68282;42.698;23.350;2023-05-16T10:13:22;94891.41;;;18.58;59.20
78894;BME280;68282;42.698;23.350;2023-05-16T10:15:49;94887.06;;;18.57;58.72
78894;BME280;68282;42.698;23.350;2023-05-16T10:18:20;94887.53;;;18.59;59.56
78894;BME280;68282;42.698;23.350;2023-05-16T10:20:48;94886.97;;;18.62;58.58
78894;BME280;68282;42.698;23.350;2023-05-16T10:23:19;94889.41;;;18.63;58.88
78894;BME280;68282;42.698;23.350;2023-05-16T10:25:47;94903.78;;;18.60;59.34
78894;BME280;68282;42.698;23.350;2023-05-16T10:28:17;94893.31;;;18.62;59.23
78894;BME280;68282;42.698;23.350;2023-05-16T10:30:43;94888.59;;;18.63;59.59
78894;BME280;68282;42.698;23.350;2023-05-16T10:33:13;94873.19;;;18.62;59.40
78894;BME280;68282;42.698;23.350;2023-05-16T10:35:40;94858.63;;;18.61;59.02
78894;BME280;68282;42.698;23.350;2023-05-16T10:38:07;94869.31;;;18.63;59.17
78894;BME280;68282;42.698;23.350;2023-05-16T10:40:38;94862.16;;;18.62;59.97
78894;BME280;68282;42.698;23.350;2023-05-16T10:43:06;94851.16;;;18.62;60.81
78894;BME280;68282;42.698;23.350;2023-05-16T10:45:32;94841.25;;;18.61;60.99
78894;BME280;68282;42.698;23.350;2023-05-16T10:48:02;94822.19;;;18.64;60.67
78894;BME280;68282;42.698;23.350;2023-05-16T10:53:35;94820.06;;;18.75;59.85
78894;BME280;68282;42.698;23.350;2023-05-16T11:06:22;94840.16;;;18.76;60.19
78894;BME280;68282;42.698;23.350;2023-05-16T11:09:25;94849.53;;;18.75;60.79
78894;BME280;68282;42.698;23.350;2023-05-16T11:17:01;94840.88;;;18.67;59.95
78894;BME280;68282;42.698;23.350;2023-05-16T11:25:07;94864.91;;;18.62;60.56
78894;BME280;68282;42.698;23.350;2023-05-16T11:27:44;94871.53;;;18.61;60.51
78894;BME280;68282;42.698;23.350;2023-05-16T11:30:16;94876.31;;;18.55;60.93
78894;BME280;68282;42.698;23.350;2023-05-16T11:32:45;94870.81;;;18.55;60.97
78894;BME280;68282;42.698;23.350;2023-05-16T11:35:13;94872.44;;;18.56;61.08
78894;BME280;68282;42.698;23.350;2023-05-16T11:37:39;94857.88;;;18.56;60.86
78894;BME280;68282;42.698;23.350;2023-05-16T11:40:06;94861.97;;;18.58;61.01
78894;BME280;68282;42.698;23.350;2023-05-16T11:42:38;94848.41;;;18.62;61.35
78894;BME280;68282;42.698;23.350;2023-05-16T11:45:18;94848.59;;;18.65;61.43
78894;BME280;68282;42.698;23.350;2023-05-16T11:47:45;94851.88;;;18.67;60.76
78894;BME280;68282;42.698;23.350;2023-05-16T11:50:17;94851.88;;;18.67;61.24
78894;BME280;68282;42.698;23.350;2023-05-16T11:52:51;94837.00;;;18.68;61.11
78894;BME280;68282;42.698;23.350;2023-05-16T11:55:23;94830.97;;;18.66;60.97
78894;BME280;68282;42.698;23.350;2023-05-16T11:57:50;94843.22;;;18.74;60.73
78894;BME280;68282;42.698;23.350;2023-05-16T12:00:18;94841.28;;;18.75;61.08
78894;BME280;68282;42.698;23.350;2023-05-16T12:02:47;94813.97;;;18.78;60.68
78894;BME280;68282;42.698;23.350;2023-05-16T12:05:14;94818.56;;;18.83;61.05
78894;BME280;68282;42.698;23.350;2023-05-16T12:07:42;94813.78;;;18.89;60.67
78894;BME280;68282;42.698;23.350;2023-05-16T12:10:10;94799.31;;;18.97;60.77
78894;BME280;68282;42.698;23.350;2023-05-16T12:12:39;94801.47;;;19.00;60.97
78894;BME280;68282;42.698;23.350;2023-05-16T12:15:05;94793.91;;;19.06;61.05
78894;BME280;68282;42.698;23.350;2023-05-16T12:17:35;94796.47;;;19.16;59.63
78894;BME280;68282;42.698;23.350;2023-05-16T12:20:02;94805.53;;;19.30;60.29
78894;BME280;68282;42.698;23.350;2023-05-16T12:22:32;94817.06;;;19.33;59.81
78894;BME280;68282;42.698;23.350;2023-05-16T12:24:59;94810.66;;;19.51;58.73
78894;BME280;68282;42.698;23.350;2023-05-16T12:27:25;94806.41;;;19.68;58.52
78894;BME280;68282;42.698;23.350;2023-05-16T12:29:51;94801.94;;;19.72;58.49
78894;BME280;68282;42.698;23.350;2023-05-16T12:32:17;94799.16;;;19.72;58.50
78894;BME280;68282;42.698;23.350;2023-05-16T12:34:51;94799.16;;;19.72;57.99
78894;BME280;68282;42.698;23.350;2023-05-16T12:37:17;94799.97;;;19.72;58.18
78894;BME280;68282;42.698;23.350;2023-05-16T12:39:44;94801.69;;;19.68;58.67
78894;BME280;68282;42.698;23.350;2023-05-16T12:42:12;94800.72;;;19.64;58.03
78894;BME280;68282;42.698;23.350;2023-05-16T12:44:39;94801.44;;;19.56;57.88
78894;BME280;68282;42.698;23.350;2023-05-16T12:47:14;94801.22;;;19.52;57.97
78894;BME280;68282;42.698;23.350;2023-05-16T12:49:44;94812.38;;;19.47;58.05
78894;BME280;68282;42.698;23.350;2023-05-16T12:52:16;94805.84;;;19.43;58.03
78894;BME280;68282;42.698;23.350;2023-05-16T12:54:43;94822.38;;;19.43;58.48
78894;BME280;68282;42.698;23.350;2023-05-16T12:57:09;94825.25;;;19.38;58.61
78894;BME280;68282;42.698;23.350;2023-05-16T12:59:34;94811.88;;;19.31;58.46
78894;BME280;68282;42.698;23.350;2023-05-16T13:02:00;94816.16;;;19.23;58.74
78894;BME280;68282;42.698;23.350;2023-05-16T13:04:25;94812.91;;;19.21;58.96
78894;BME280;68282;42.698;23.350;2023-05-16T13:06:50;94818.53;;;19.16;58.94
78894;BME280;68282;42.698;23.350;2023-05-16T13:09:17;94820.97;;;19.18;59.26
78894;BME280;68282;42.698;23.350;2023-05-16T13:11:43;94813.63;;;19.13;59.51
78894;BME280;68282;42.698;23.350;2023-05-16T13:14:09;94825.44;;;19.13;59.00
78894;BME280;68282;42.698;23.350;2023-05-16T13:16:34;94813.09;;;19.11;58.46
78894;BME280;68282;42.698;23.350;2023-05-16T13:19:00;94810.47;;;19.06;58.46
78894;BME280;68282;42.698;23.350;2023-05-16T13:21:26;94816.56;;;19.03;58.58
78894;BME280;68282;42.698;23.350;2023-05-16T13:23:54;94818.28;;;18.98;58.57